sensor_id;sensor_type;location;lat;lon;timestamp;P1;durP1;ratioP1;P2;durP2;ratioP2
17987;SDS011;9119;50.932;5.342;2022-09-03T00:00:23;54.73;;;31.43;;
17987;SDS011;9119;50.932;5.342;2022-09-03T00:08:53;31.50;;;15.87;;
17987;SDS011;9119;50.932;5.342;2022-09-03T00:16:27;94.83;;;48.97;;
17987;SDS011;9119;50.932;5.342;2022-09-03T00:18:59;31.67;;;17.43;;
17987;SDS011;9119;50.932;5.342;2022-09-03T00:24:38;329.13;;;174.77;;
17987;SDS011;9119;50.932;5.342;2022-09-03T00:27:06;190.90;;;103.80;;
17987;SDS011;9119;50.932;5.342;2022-09-03T00:29:40;233.57;;;127.87;;
17987;SDS011;9119;50.932;5.342;2022-09-03T00:32:25;303.90;;;166.00;;
17987;SDS011;9119;50.932;5.342;2022-09-03T00:34:59;129.60;;;108.43;;
17987;SDS011;9119;50.932;5.342;2022-09-03T00:37:30;107.00;;;58.07;;
17987;SDS011;9119;50.932;5.342;2022-09-03T00:39:58;33.47;;;17.60;;
17987;SDS011;9119;50.932;5.342;2022-09-03T00:48:11;52.57;;;28.37;;
17987;SDS011;9119;50.932;5.342;2022-09-03T00:51:06;40.30;;;21.80;;
17987;SDS011;9119;50.932;5.342;2022-09-03T00:56:27;157.60;;;89.37;;
17987;SDS011;9119;50.932;5.342;2022-09-03T01:04:29;43.83;;;21.47;;
17987;SDS011;9119;50.932;5.342;2022-09-03T01:20:47;52.23;;;28.33;;
17987;SDS011;9119;50.932;5.342;2022-09-03T01:25:52;67.40;;;38.57;;
17987;SDS011;9119;50.932;5.342;2022-09-03T01:28:37;116.10;;;62.53;;
17987;SDS011;9119;50.932;5.342;2022-09-03T01:39:27;27.43;;;15.27;;
17987;SDS011;9119;50.932;5.342;2022-09-03T01:55:59;143.13;;;78.40;;
17987;SDS011;9119;50.932;5.342;2022-09-03T01:58:56;254.43;;;135.60;;
17987;SDS011;9119;50.932;5.342;2022-09-03T02:01:48;95.67;;;50.17;;
17987;SDS011;9119;50.932;5.342;2022-09-03T02:04:21;43.63;;;21.73;;
17987;SDS011;9119;50.932;5.342;2022-09-03T02:06:52;41.53;;;23.67;;
17987;SDS011;9119;50.932;5.342;2022-09-03T02:09:21;19.03;;;11.03;;
17987;SDS011;9119;50.932;5.342;2022-09-03T02:12:07;35.07;;;21.10;;
17987;SDS011;9119;50.932;5.342;2022-09-03T02:14:38;46.00;;;25.60;;
17987;SDS011;9119;50.932;5.342;2022-09-03T02:17:04;9.73;;;5.67;;
17987;SDS011;9119;50.932;5.342;2022-09-03T02:19:31;19.13;;;11.50;;
17987;SDS011;9119;50.932;5.342;2022-09-03T02:21:58;56.00;;;30.03;;
17987;SDS011;9119;50.932;5.342;2022-09-03T02:24:24;21.47;;;11.93;;
17987;SDS011;9119;50.932;5.342;2022-09-03T02:26:52;13.83;;;5.53;;
17987;SDS011;9119;50.932;5.342;2022-09-03T02:29:18;24.73;;;10.50;;
17987;SDS011;9119;50.932;5.342;2022-09-03T02:31:45;4.63;;;2.70;;
17987;SDS011;9119;50.932;5.342;2022-09-03T02:34:11;18.33;;;9.60;;
17987;SDS011;9119;50.932;5.342;2022-09-03T02:36:41;18.67;;;8.80;;
17987;SDS011;9119;50.932;5.342;2022-09-03T02:39:12;12.87;;;5.73;;
17987;SDS011;9119;50.932;5.342;2022-09-03T02:41:39;5.33;;;2.20;;
17987;SDS011;9119;50.932;5.342;2022-09-03T02:46:53;3.23;;;1.63;;
17987;SDS011;9119;50.932;5.342;2022-09-03T02:49:22;3.50;;;2.00;;
17987;SDS011;9119;50.932;5.342;2022-09-03T02:51:48;3.67;;;1.70;;
17987;SDS011;9119;50.932;5.342;2022-09-03T02:54:14;5.63;;;2.37;;
17987;SDS011;9119;50.932;5.342;2022-09-03T02:56:39;3.53;;;1.97;;
17987;SDS011;9119;50.932;5.342;2022-09-03T02:59:06;3.90;;;2.00;;
17987;SDS011;9119;50.932;5.342;2022-09-03T03:01:33;5.70;;;2.77;;
17987;SDS011;9119;50.932;5.342;2022-09-03T03:03:59;6.43;;;2.50;;
17987;SDS011;9119;50.932;5.342;2022-09-03T03:06:25;9.80;;;2.93;;
17987;SDS011;9119;50.932;5.342;2022-09-03T03:08:51;4.13;;;2.20;;
17987;SDS011;9119;50.932;5.342;2022-09-03T03:11:19;12.37;;;3.03;;
17987;SDS011;9119;50.932;5.342;2022-09-03T03:13:45;4.00;;;2.13;;
17987;SDS011;9119;50.932;5.342;2022-09-03T03:16:11;4.50;;;2.17;;
17987;SDS011;9119;50.932;5.342;2022-09-03T03:18:38;5.03;;;2.30;;
17987;SDS011;9119;50.932;5.342;2022-09-03T03:21:04;2.47;;;1.80;;
17987;SDS011;9119;50.932;5.342;2022-09-03T03:23:31;3.40;;;2.27;;
17987;SDS011;9119;50.932;5.342;2022-09-03T03:26:07;4.70;;;2.40;;
17987;SDS011;9119;50.932;5.342;2022-09-03T03:28:35;3.03;;;2.17;;
17987;SDS011;9119;50.932;5.342;2022-09-03T03:31:04;6.23;;;2.40;;
17987;SDS011;9119;50.932;5.342;2022-09-03T03:33:34;12.50;;;2.30;;
17987;SDS011;9119;50.932;5.342;2022-09-03T03:36:07;8.70;;;2.40;;
17987;SDS011;9119;50.932;5.342;2022-09-03T03:38:34;4.80;;;1.97;;
17987;SDS011;9119;50.932;5.342;2022-09-03T03:41:08;8.23;;;2.23;;
17987;SDS011;9119;50.932;5.342;2022-09-03T03:43:41;3.30;;;1.83;;
17987;SDS011;9119;50.932;5.342;2022-09-03T03:46:07;4.70;;;1.70;;
17987;SDS011;9119;50.932;5.342;2022-09-03T03:48:34;3.30;;;1.90;;
17987;SDS011;9119;50.932;5.342;2022-09-03T03:51:01;4.83;;;1.97;;
17987;SDS011;9119;50.932;5.342;2022-09-03T03:53:32;4.10;;;1.97;;
17987;SDS011;9119;50.932;5.342;2022-09-03T03:56:00;3.33;;;2.00;;
17987;SDS011;9119;50.932;5.342;2022-09-03T03:58:28;6.97;;;1.90;;
17987;SDS011;9119;50.932;5.342;2022-09-03T04:01:02;3.77;;;2.10;;
17987;SDS011;9119;50.932;5.342;2022-09-03T04:03:33;7.93;;;2.30;;
17987;SDS011;9119;50.932;5.342;2022-09-03T04:05:59;3.67;;;1.87;;
17987;SDS011;9119;50.932;5.342;2022-09-03T04:08:26;5.97;;;1.87;;
17987;SDS011;9119;50.932;5.342;2022-09-03T04:10:53;4.93;;;1.97;;
17987;SDS011;9119;50.932;5.342;2022-09-03T04:13:19;4.27;;;1.67;;
17987;SDS011;9119;50.932;5.342;2022-09-03T04:15:44;6.00;;;2.03;;
17987;SDS011;9119;50.932;5.342;2022-09-03T04:18:10;3.80;;;1.90;;
17987;SDS011;9119;50.932;5.342;2022-09-03T04:20:36;7.00;;;2.00;;
17987;SDS011;9119;50.932;5.342;2022-09-03T04:23:03;2.93;;;1.77;;
17987;SDS011;9119;50.932;5.342;2022-09-03T04:25:30;4.23;;;1.93;;
17987;SDS011;9119;50.932;5.342;2022-09-03T04:27:55;3.43;;;2.17;;
17987;SDS011;9119;50.932;5.342;2022-09-03T04:30:21;5.23;;;1.70;;
17987;SDS011;9119;50.932;5.342;2022-09-03T04:32:50;5.07;;;2.10;;
17987;SDS011;9119;50.932;5.342;2022-09-03T04:35:20;4.70;;;1.93;;
17987;SDS011;9119;50.932;5.342;2022-09-03T04:37:47;3.60;;;1.80;;
17987;SDS011;9119;50.932;5.342;2022-09-03T04:40:12;3.93;;;1.70;;
17987;SDS011;9119;50.932;5.342;2022-09-03T04:42:38;3.77;;;1.87;;
17987;SDS011;9119;50.932;5.342;2022-09-03T04:45:04;7.97;;;2.07;;
17987;SDS011;9119;50.932;5.342;2022-09-03T04:47:31;4.20;;;1.67;;
17987;SDS011;9119;50.932;5.342;2022-09-03T04:49:56;6.00;;;2.07;;
17987;SDS011;9119;50.932;5.342;2022-09-03T04:52:22;2.43;;;1.80;;
17987;SDS011;9119;50.932;5.342;2022-09-03T04:54:48;8.43;;;1.73;;
17987;SDS011;9119;50.932;5.342;2022-09-03T04:57:15;3.83;;;1.80;;
17987;SDS011;9119;50.932;5.342;2022-09-03T04:59:40;4.40;;;1.93;;
17987;SDS011;9119;50.932;5.342;2022-09-03T05:02:06;7.77;;;2.00;;
17987;SDS011;9119;50.932;5.342;2022-09-03T05:04:33;6.07;;;2.10;;
17987;SDS011;9119;50.932;5.342;2022-09-03T05:06:59;6.87;;;1.97;;
17987;SDS011;9119;50.932;5.342;2022-09-03T05:09:25;6.53;;;1.77;;
17987;SDS011;9119;50.932;5.342;2022-09-03T05:11:50;6.80;;;1.90;;
17987;SDS011;9119;50.932;5.342;2022-09-03T05:14:16;5.13;;;1.90;;
17987;SDS011;9119;50.932;5.342;2022-09-03T05:16:42;2.80;;;1.70;;
17987;SDS011;9119;50.932;5.342;2022-09-03T05:19:08;4.43;;;2.03;;
17987;SDS011;9119;50.932;5.342;2022-09-03T05:21:35;6.37;;;2.10;;
17987;SDS011;9119;50.932;5.342;2022-09-03T05:24:01;11.27;;;2.10;;
17987;SDS011;9119;50.932;5.342;2022-09-03T05:26:29;7.10;;;2.40;;
17987;SDS011;9119;50.932;5.342;2022-09-03T05:29:00;3.90;;;2.30;;
17987;SDS011;9119;50.932;5.342;2022-09-03T05:31:28;7.77;;;2.70;;
17987;SDS011;9119;50.932;5.342;2022-09-03T05:33:56;6.33;;;2.10;;
17987;SDS011;9119;50.932;5.342;2022-09-03T05:36:25;8.00;;;2.33;;
17987;SDS011;9119;50.932;5.342;2022-09-03T05:38:52;4.63;;;2.23;;
17987;SDS011;9119;50.932;5.342;2022-09-03T05:41:18;8.27;;;2.57;;
17987;SDS011;9119;50.932;5.342;2022-09-03T05:43:49;13.30;;;2.80;;
17987;SDS011;9119;50.932;5.342;2022-09-03T05:46:17;7.73;;;2.63;;
17987;SDS011;9119;50.932;5.342;2022-09-03T05:48:44;7.87;;;2.83;;
17987;SDS011;9119;50.932;5.342;2022-09-03T05:51:13;11.23;;;3.00;;
17987;SDS011;9119;50.932;5.342;2022-09-03T05:53:42;7.83;;;2.97;;
17987;SDS011;9119;50.932;5.342;2022-09-03T05:56:10;5.63;;;2.10;;
17987;SDS011;9119;50.932;5.342;2022-09-03T05:58:39;8.90;;;2.47;;
17987;SDS011;9119;50.932;5.342;2022-09-03T06:01:30;9.23;;;2.57;;
17987;SDS011;9119;50.932;5.342;2022-09-03T06:06:32;6.37;;;2.43;;
17987;SDS011;9119;50.932;5.342;2022-09-03T06:09:00;6.40;;;2.57;;
17987;SDS011;9119;50.932;5.342;2022-09-03T06:11:38;7.03;;;3.07;;
17987;SDS011;9119;50.932;5.342;2022-09-03T06:14:05;11.40;;;3.30;;
17987;SDS011;9119;50.932;5.342;2022-09-03T06:16:33;12.03;;;3.03;;
17987;SDS011;9119;50.932;5.342;2022-09-03T06:19:04;11.60;;;3.23;;
17987;SDS011;9119;50.932;5.342;2022-09-03T06:21:34;7.03;;;3.23;;
17987;SDS011;9119;50.932;5.342;2022-09-03T06:24:01;9.50;;;3.30;;
17987;SDS011;9119;50.932;5.342;2022-09-03T06:26:27;6.07;;;2.87;;
17987;SDS011;9119;50.932;5.342;2022-09-03T06:28:53;8.23;;;2.97;;
17987;SDS011;9119;50.932;5.342;2022-09-03T06:31:20;8.97;;;2.73;;
17987;SDS011;9119;50.932;5.342;2022-09-03T06:33:46;7.20;;;2.80;;
17987;SDS011;9119;50.932;5.342;2022-09-03T06:36:14;8.53;;;3.10;;
17987;SDS011;9119;50.932;5.342;2022-09-03T06:38:42;10.30;;;2.93;;
17987;SDS011;9119;50.932;5.342;2022-09-03T06:41:09;10.90;;;3.20;;
17987;SDS011;9119;50.932;5.342;2022-09-03T06:43:37;6.83;;;3.00;;
17987;SDS011;9119;50.932;5.342;2022-09-03T06:46:12;16.20;;;3.47;;
17987;SDS011;9119;50.932;5.342;2022-09-03T06:48:39;6.87;;;2.50;;
17987;SDS011;9119;50.932;5.342;2022-09-03T06:53:34;28.90;;;8.03;;
17987;SDS011;9119;50.932;5.342;2022-09-03T06:56:08;7.57;;;3.10;;
17987;SDS011;9119;50.932;5.342;2022-09-03T06:58:36;7.33;;;2.90;;
17987;SDS011;9119;50.932;5.342;2022-09-03T07:01:05;6.77;;;3.17;;
17987;SDS011;9119;50.932;5.342;2022-09-03T07:03:35;78.33;;;14.07;;
17987;SDS011;9119;50.932;5.342;2022-09-03T07:06:03;12.47;;;2.57;;
17987;SDS011;9119;50.932;5.342;2022-09-03T07:08:43;10.07;;;2.00;;
17987;SDS011;9119;50.932;5.342;2022-09-03T07:11:14;5.97;;;3.03;;
17987;SDS011;9119;50.932;5.342;2022-09-03T07:13:42;7.70;;;2.43;;
17987;SDS011;9119;50.932;5.342;2022-09-03T07:16:13;13.90;;;2.80;;
17987;SDS011;9119;50.932;5.342;2022-09-03T07:18:41;9.17;;;2.50;;
17987;SDS011;9119;50.932;5.342;2022-09-03T07:21:20;9.70;;;2.43;;
17987;SDS011;9119;50.932;5.342;2022-09-03T07:23:50;15.90;;;2.60;;
17987;SDS011;9119;50.932;5.342;2022-09-03T07:26:19;4.27;;;1.77;;
17987;SDS011;9119;50.932;5.342;2022-09-03T07:28:55;5.27;;;2.30;;
17987;SDS011;9119;50.932;5.342;2022-09-03T07:31:22;5.07;;;1.60;;
17987;SDS011;9119;50.932;5.342;2022-09-03T07:33:59;6.63;;;1.83;;
17987;SDS011;9119;50.932;5.342;2022-09-03T07:36:33;7.70;;;1.90;;
17987;SDS011;9119;50.932;5.342;2022-09-03T07:39:03;3.43;;;1.80;;
17987;SDS011;9119;50.932;5.342;2022-09-03T07:41:29;5.50;;;1.67;;
17987;SDS011;9119;50.932;5.342;2022-09-03T07:43:57;5.80;;;2.00;;
17987;SDS011;9119;50.932;5.342;2022-09-03T07:46:25;3.77;;;2.03;;
17987;SDS011;9119;50.932;5.342;2022-09-03T07:48:52;6.40;;;1.87;;
17987;SDS011;9119;50.932;5.342;2022-09-03T07:51:19;4.83;;;1.70;;
17987;SDS011;9119;50.932;5.342;2022-09-03T07:53:48;3.20;;;1.60;;
17987;SDS011;9119;50.932;5.342;2022-09-03T07:56:15;3.53;;;1.90;;
17987;SDS011;9119;50.932;5.342;2022-09-03T07:58:41;3.07;;;2.00;;
17987;SDS011;9119;50.932;5.342;2022-09-03T08:01:08;7.97;;;2.30;;
17987;SDS011;9119;50.932;5.342;2022-09-03T08:03:36;7.27;;;3.33;;
17987;SDS011;9119;50.932;5.342;2022-09-03T08:06:04;6.33;;;2.20;;
17987;SDS011;9119;50.932;5.342;2022-09-03T08:08:31;11.80;;;2.20;;
17987;SDS011;9119;50.932;5.342;2022-09-03T08:11:08;8.80;;;2.30;;
17987;SDS011;9119;50.932;5.342;2022-09-03T08:13:39;5.23;;;2.03;;
17987;SDS011;9119;50.932;5.342;2022-09-03T08:16:06;6.80;;;2.03;;
17987;SDS011;9119;50.932;5.342;2022-09-03T08:18:35;7.37;;;2.33;;
17987;SDS011;9119;50.932;5.342;2022-09-03T08:21:04;6.00;;;1.90;;
17987;SDS011;9119;50.932;5.342;2022-09-03T08:23:37;3.43;;;1.87;;
17987;SDS011;9119;50.932;5.342;2022-09-03T08:26:03;7.03;;;2.17;;
17987;SDS011;9119;50.932;5.342;2022-09-03T08:28:31;8.57;;;2.10;;
17987;SDS011;9119;50.932;5.342;2022-09-03T08:30:58;7.60;;;2.10;;
17987;SDS011;9119;50.932;5.342;2022-09-03T08:33:35;7.77;;;2.20;;
17987;SDS011;9119;50.932;5.342;2022-09-03T08:36:03;4.90;;;2.30;;
17987;SDS011;9119;50.932;5.342;2022-09-03T08:38:40;5.13;;;2.40;;
17987;SDS011;9119;50.932;5.342;2022-09-03T08:41:14;4.53;;;2.30;;
17987;SDS011;9119;50.932;5.342;2022-09-03T08:46:40;7.47;;;2.10;;
17987;SDS011;9119;50.932;5.342;2022-09-03T08:49:12;14.20;;;2.27;;
17987;SDS011;9119;50.932;5.342;2022-09-03T08:51:40;5.37;;;1.87;;
17987;SDS011;9119;50.932;5.342;2022-09-03T08:54:08;2.57;;;1.83;;
17987;SDS011;9119;50.932;5.342;2022-09-03T08:56:37;3.60;;;1.97;;
17987;SDS011;9119;50.932;5.342;2022-09-03T08:59:06;6.70;;;2.20;;
17987;SDS011;9119;50.932;5.342;2022-09-03T09:09:22;8.30;;;2.30;;
17987;SDS011;9119;50.932;5.342;2022-09-03T09:20:41;2.55;;;1.85;;
17987;SDS011;9119;50.932;5.342;2022-09-03T09:23:36;3.03;;;2.30;;
17987;SDS011;9119;50.932;5.342;2022-09-03T09:26:00;5.57;;;2.08;;
17987;SDS011;9119;50.932;5.342;2022-09-03T09:28:35;1.80;;;1.50;;
17987;SDS011;9119;50.932;5.342;2022-09-03T09:31:02;2.55;;;1.73;;
17987;SDS011;9119;50.932;5.342;2022-09-03T09:33:31;2.83;;;1.50;;
17987;SDS011;9119;50.932;5.342;2022-09-03T09:36:10;3.67;;;1.90;;
17987;SDS011;9119;50.932;5.342;2022-09-03T09:38:40;3.75;;;1.83;;
17987;SDS011;9119;50.932;5.342;2022-09-03T09:41:08;5.45;;;2.20;;
17987;SDS011;9119;50.932;5.342;2022-09-03T09:43:34;4.60;;;2.28;;
17987;SDS011;9119;50.932;5.342;2022-09-03T09:46:05;3.60;;;2.22;;
17987;SDS011;9119;50.932;5.342;2022-09-03T09:48:39;5.60;;;2.17;;
17987;SDS011;9119;50.932;5.342;2022-09-03T09:53:44;4.55;;;2.47;;
17987;SDS011;9119;50.932;5.342;2022-09-03T09:56:23;2.35;;;1.98;;
17987;SDS011;9119;50.932;5.342;2022-09-03T09:59:00;11.70;;;2.50;;
17987;SDS011;9119;50.932;5.342;2022-09-03T10:01:37;3.25;;;2.30;;
17987;SDS011;9119;50.932;5.342;2022-09-03T10:04:10;5.70;;;2.30;;
17987;SDS011;9119;50.932;5.342;2022-09-03T10:06:52;5.33;;;1.93;;
17987;SDS011;9119;50.932;5.342;2022-09-03T10:09:31;3.93;;;2.00;;
17987;SDS011;9119;50.932;5.342;2022-09-03T10:14:27;4.67;;;2.20;;
17987;SDS011;9119;50.932;5.342;2022-09-03T10:17:10;3.77;;;2.20;;
17987;SDS011;9119;50.932;5.342;2022-09-03T10:19:59;3.70;;;2.40;;
17987;SDS011;9119;50.932;5.342;2022-09-03T10:22:55;4.57;;;2.37;;
17987;SDS011;9119;50.932;5.342;2022-09-03T10:25:33;4.90;;;2.53;;
17987;SDS011;9119;50.932;5.342;2022-09-03T10:28:08;3.60;;;2.30;;
17987;SDS011;9119;50.932;5.342;2022-09-03T10:33:34;10.20;;;2.20;;
17987;SDS011;9119;50.932;5.342;2022-09-03T10:36:17;6.23;;;2.57;;
17987;SDS011;9119;50.932;5.342;2022-09-03T10:41:38;6.43;;;2.13;;
17987;SDS011;9119;50.932;5.342;2022-09-03T10:44:28;8.82;;;2.67;;
17987;SDS011;9119;50.932;5.342;2022-09-03T10:47:25;5.00;;;2.55;;
17987;SDS011;9119;50.932;5.342;2022-09-03T11:06:49;3.65;;;2.05;;
17987;SDS011;9119;50.932;5.342;2022-09-03T11:09:25;2.50;;;1.77;;
17987;SDS011;9119;50.932;5.342;2022-09-03T11:11:55;3.95;;;1.83;;
17987;SDS011;9119;50.932;5.342;2022-09-03T11:14:30;2.40;;;1.80;;
17987;SDS011;9119;50.932;5.342;2022-09-03T11:17:10;2.85;;;2.15;;
17987;SDS011;9119;50.932;5.342;2022-09-03T11:19:45;2.10;;;1.90;;
17987;SDS011;9119;50.932;5.342;2022-09-03T11:22:15;2.88;;;2.20;;
17987;SDS011;9119;50.932;5.342;2022-09-03T11:24:43;4.75;;;2.30;;
17987;SDS011;9119;50.932;5.342;2022-09-03T11:27:17;4.85;;;2.78;;
17987;SDS011;9119;50.932;5.342;2022-09-03T11:36:00;9.20;;;2.75;;
17987;SDS011;9119;50.932;5.342;2022-09-03T11:38:04;5.28;;;1.95;;
17987;SDS011;9119;50.932;5.342;2022-09-03T11:40:56;81.68;;;7.20;;
17987;SDS011;9119;50.932;5.342;2022-09-03T11:43:36;104.82;;;10.73;;
17987;SDS011;9119;50.932;5.342;2022-09-03T11:46:05;9.32;;;3.20;;
17987;SDS011;9119;50.932;5.342;2022-09-03T11:48:42;28.35;;;4.03;;
17987;SDS011;9119;50.932;5.342;2022-09-03T11:51:31;5.80;;;3.00;;
17987;SDS011;9119;50.932;5.342;2022-09-03T11:54:03;3.75;;;2.70;;
17987;SDS011;9119;50.932;5.342;2022-09-03T11:56:30;10.33;;;3.73;;
17987;SDS011;9119;50.932;5.342;2022-09-03T11:59:21;7.80;;;2.90;;
17987;SDS011;9119;50.932;5.342;2022-09-03T12:19:55;4.97;;;2.67;;
17987;SDS011;9119;50.932;5.342;2022-09-03T12:22:24;5.10;;;2.90;;
17987;SDS011;9119;50.932;5.342;2022-09-03T12:24:55;5.20;;;3.17;;
17987;SDS011;9119;50.932;5.342;2022-09-03T12:27:36;3.30;;;2.40;;
17987;SDS011;9119;50.932;5.342;2022-09-03T12:30:03;10.57;;;2.80;;
17987;SDS011;9119;50.932;5.342;2022-09-03T12:32:30;5.07;;;2.57;;
17987;SDS011;9119;50.932;5.342;2022-09-03T12:35:11;2.80;;;2.33;;
17987;SDS011;9119;50.932;5.342;2022-09-03T12:37:45;7.70;;;2.73;;
17987;SDS011;9119;50.932;5.342;2022-09-03T12:40:17;8.53;;;3.27;;
17987;SDS011;9119;50.932;5.342;2022-09-03T12:42:45;5.47;;;3.07;;
17987;SDS011;9119;50.932;5.342;2022-09-03T12:45:12;14.50;;;3.27;;
17987;SDS011;9119;50.932;5.342;2022-09-03T12:47:40;8.07;;;3.40;;
17987;SDS011;9119;50.932;5.342;2022-09-03T12:50:09;5.20;;;2.70;;
17987;SDS011;9119;50.932;5.342;2022-09-03T12:52:47;8.90;;;2.70;;
17987;SDS011;9119;50.932;5.342;2022-09-03T12:55:48;5.13;;;2.47;;
17987;SDS011;9119;50.932;5.342;2022-09-03T12:58:24;4.13;;;2.63;;
17987;SDS011;9119;50.932;5.342;2022-09-03T13:03:54;6.13;;;2.73;;
17987;SDS011;9119;50.932;5.342;2022-09-03T13:09:14;5.40;;;2.40;;
17987;SDS011;9119;50.932;5.342;2022-09-03T13:11:43;2.80;;;2.50;;
17987;SDS011;9119;50.932;5.342;2022-09-03T13:14:12;3.13;;;2.20;;
17987;SDS011;9119;50.932;5.342;2022-09-03T13:27:25;5.80;;;2.40;;
17987;SDS011;9119;50.932;5.342;2022-09-03T13:32:43;3.47;;;2.20;;
17987;SDS011;9119;50.932;5.342;2022-09-03T13:35:28;7.93;;;2.50;;
17987;SDS011;9119;50.932;5.342;2022-09-03T13:37:56;4.80;;;2.60;;
17987;SDS011;9119;50.932;5.342;2022-09-03T13:40:43;4.03;;;2.60;;
17987;SDS011;9119;50.932;5.342;2022-09-03T13:46:10;3.57;;;2.20;;
17987;SDS011;9119;50.932;5.342;2022-09-03T13:48:43;4.83;;;2.30;;
17987;SDS011;9119;50.932;5.342;2022-09-03T13:51:36;5.20;;;2.20;;
17987;SDS011;9119;50.932;5.342;2022-09-03T13:54:43;3.77;;;2.23;;
17987;SDS011;9119;50.932;5.342;2022-09-03T13:57:25;4.43;;;2.57;;
17987;SDS011;9119;50.932;5.342;2022-09-03T14:00:11;5.57;;;2.30;;
17987;SDS011;9119;50.932;5.342;2022-09-03T14:02:50;3.87;;;2.37;;
17987;SDS011;9119;50.932;5.342;2022-09-03T14:05:30;3.53;;;2.67;;
17987;SDS011;9119;50.932;5.342;2022-09-03T14:08:03;4.77;;;2.93;;
17987;SDS011;9119;50.932;5.342;2022-09-03T14:13:23;3.87;;;3.00;;
17987;SDS011;9119;50.932;5.342;2022-09-03T14:16:10;4.27;;;2.57;;
17987;SDS011;9119;50.932;5.342;2022-09-03T14:18:57;6.33;;;2.80;;
17987;SDS011;9119;50.932;5.342;2022-09-03T14:21:28;6.90;;;3.10;;
17987;SDS011;9119;50.932;5.342;2022-09-03T14:26:47;5.03;;;2.90;;
17987;SDS011;9119;50.932;5.342;2022-09-03T14:29:16;5.53;;;2.93;;
17987;SDS011;9119;50.932;5.342;2022-09-03T14:32:16;5.17;;;3.00;;
17987;SDS011;9119;50.932;5.342;2022-09-03T14:34:40;9.70;;;3.27;;
17987;SDS011;9119;50.932;5.342;2022-09-03T14:42:36;9.57;;;3.77;;
17987;SDS011;9119;50.932;5.342;2022-09-03T14:56:15;20.17;;;12.30;;
17987;SDS011;9119;50.932;5.342;2022-09-03T15:01:28;7.83;;;4.00;;
17987;SDS011;9119;50.932;5.342;2022-09-03T15:09:31;4.97;;;3.57;;
17987;SDS011;9119;50.932;5.342;2022-09-03T15:12:16;6.97;;;3.30;;
17987;SDS011;9119;50.932;5.342;2022-09-03T15:14:56;5.67;;;3.00;;
17987;SDS011;9119;50.932;5.342;2022-09-03T15:17:46;6.70;;;3.10;;
17987;SDS011;9119;50.932;5.342;2022-09-03T15:23:28;8.00;;;3.60;;
17987;SDS011;9119;50.932;5.342;2022-09-03T15:29:17;8.10;;;4.07;;
17987;SDS011;9119;50.932;5.342;2022-09-03T15:32:17;7.77;;;4.00;;
17987;SDS011;9119;50.932;5.342;2022-09-03T15:34:55;5.13;;;3.27;;
17987;SDS011;9119;50.932;5.342;2022-09-03T15:37:29;9.47;;;4.37;;
17987;SDS011;9119;50.932;5.342;2022-09-03T15:40:04;12.83;;;3.47;;
17987;SDS011;9119;50.932;5.342;2022-09-03T15:42:49;8.93;;;3.20;;
17987;SDS011;9119;50.932;5.342;2022-09-03T15:48:00;5.50;;;3.23;;
17987;SDS011;9119;50.932;5.342;2022-09-03T15:50:49;5.90;;;3.00;;
17987;SDS011;9119;50.932;5.342;2022-09-03T15:54:29;7.90;;;3.10;;
17987;SDS011;9119;50.932;5.342;2022-09-03T16:07:38;6.80;;;3.70;;
17987;SDS011;9119;50.932;5.342;2022-09-03T16:10:34;6.97;;;3.33;;
17987;SDS011;9119;50.932;5.342;2022-09-03T16:16:02;14.57;;;4.03;;
17987;SDS011;9119;50.932;5.342;2022-09-03T16:21:08;9.13;;;5.67;;
17987;SDS011;9119;50.932;5.342;2022-09-03T16:26:33;4.00;;;2.57;;
17987;SDS011;9119;50.932;5.342;2022-09-03T16:29:10;5.90;;;3.70;;
17987;SDS011;9119;50.932;5.342;2022-09-03T16:32:01;4.50;;;2.80;;
17987;SDS011;9119;50.932;5.342;2022-09-03T16:45:23;4.87;;;2.67;;
17987;SDS011;9119;50.932;5.342;2022-09-03T16:54:11;4.33;;;2.80;;
17987;SDS011;9119;50.932;5.342;2022-09-03T17:10:25;8.43;;;3.70;;
17987;SDS011;9119;50.932;5.342;2022-09-03T17:21:33;5.03;;;2.50;;
17987;SDS011;9119;50.932;5.342;2022-09-03T17:24:37;5.40;;;2.90;;
17987;SDS011;9119;50.932;5.342;2022-09-03T17:30:04;7.17;;;3.33;;
17987;SDS011;9119;50.932;5.342;2022-09-03T17:48:44;5.43;;;2.83;;
17987;SDS011;9119;50.932;5.342;2022-09-03T17:54:39;5.17;;;2.90;;
17987;SDS011;9119;50.932;5.342;2022-09-03T17:59:51;3.93;;;2.23;;
17987;SDS011;9119;50.932;5.342;2022-09-03T18:02:38;4.47;;;2.40;;
17987;SDS011;9119;50.932;5.342;2022-09-03T18:05:21;6.17;;;2.40;;
17987;SDS011;9119;50.932;5.342;2022-09-03T18:08:06;4.23;;;2.90;;
17987;SDS011;9119;50.932;5.342;2022-09-03T18:16:33;3.47;;;2.40;;
17987;SDS011;9119;50.932;5.342;2022-09-03T18:22:24;5.87;;;2.77;;
17987;SDS011;9119;50.932;5.342;2022-09-03T18:25:16;4.50;;;2.60;;
17987;SDS011;9119;50.932;5.342;2022-09-03T18:28:05;5.87;;;3.10;;
17987;SDS011;9119;50.932;5.342;2022-09-03T18:30:52;6.07;;;3.97;;
17987;SDS011;9119;50.932;5.342;2022-09-03T18:33:36;13.63;;;8.63;;
17987;SDS011;9119;50.932;5.342;2022-09-03T18:36:20;13.57;;;5.03;;
17987;SDS011;9119;50.932;5.342;2022-09-03T18:39:22;7.27;;;4.33;;
17987;SDS011;9119;50.932;5.342;2022-09-03T18:45:18;6.03;;;3.60;;
17987;SDS011;9119;50.932;5.342;2022-09-03T18:57:23;7.17;;;3.57;;
17987;SDS011;9119;50.932;5.342;2022-09-03T19:00:13;15.03;;;8.83;;
17987;SDS011;9119;50.932;5.342;2022-09-03T19:12:19;7.60;;;4.10;;
17987;SDS011;9119;50.932;5.342;2022-09-03T19:18:26;8.83;;;4.40;;
17987;SDS011;9119;50.932;5.342;2022-09-03T19:21:38;12.77;;;7.93;;
17987;SDS011;9119;50.932;5.342;2022-09-03T19:24:29;13.13;;;8.77;;
17987;SDS011;9119;50.932;5.342;2022-09-03T19:30:19;8.23;;;4.23;;
17987;SDS011;9119;50.932;5.342;2022-09-03T19:33:23;11.57;;;4.77;;
17987;SDS011;9119;50.932;5.342;2022-09-03T19:36:15;7.17;;;3.73;;
17987;SDS011;9119;50.932;5.342;2022-09-03T19:42:28;6.47;;;3.57;;
17987;SDS011;9119;50.932;5.342;2022-09-03T19:45:18;9.97;;;5.27;;
17987;SDS011;9119;50.932;5.342;2022-09-03T19:51:34;7.80;;;5.87;;
17987;SDS011;9119;50.932;5.342;2022-09-03T19:54:26;7.40;;;5.40;;
17987;SDS011;9119;50.932;5.342;2022-09-03T19:57:12;9.27;;;4.77;;
17987;SDS011;9119;50.932;5.342;2022-09-03T19:59:58;10.33;;;7.33;;
17987;SDS011;9119;50.932;5.342;2022-09-03T20:02:45;6.60;;;4.13;;
17987;SDS011;9119;50.932;5.342;2022-09-03T20:05:31;8.17;;;3.90;;
17987;SDS011;9119;50.932;5.342;2022-09-03T20:08:16;9.83;;;5.37;;
17987;SDS011;9119;50.932;5.342;2022-09-03T20:11:02;42.67;;;26.40;;
17987;SDS011;9119;50.932;5.342;2022-09-03T20:13:29;11.07;;;5.27;;
17987;SDS011;9119;50.932;5.342;2022-09-03T20:16:18;27.10;;;13.70;;
17987;SDS011;9119;50.932;5.342;2022-09-03T20:19:11;10.37;;;4.67;;
17987;SDS011;9119;50.932;5.342;2022-09-03T20:21:48;24.17;;;11.47;;
17987;SDS011;9119;50.932;5.342;2022-09-03T20:24:30;17.20;;;9.43;;
17987;SDS011;9119;50.932;5.342;2022-09-03T20:35:18;14.33;;;9.23;;
17987;SDS011;9119;50.932;5.342;2022-09-03T20:49:08;51.57;;;28.13;;
17987;SDS011;9119;50.932;5.342;2022-09-03T20:52:00;27.07;;;16.50;;
17987;SDS011;9119;50.932;5.342;2022-09-03T20:54:39;63.97;;;39.50;;
17987;SDS011;9119;50.932;5.342;2022-09-03T21:00:11;27.97;;;16.60;;
17987;SDS011;9119;50.932;5.342;2022-09-03T21:08:31;25.30;;;15.10;;
17987;SDS011;9119;50.932;5.342;2022-09-03T21:11:06;11.47;;;5.37;;
17987;SDS011;9119;50.932;5.342;2022-09-03T21:20:12;14.80;;;6.67;;
17987;SDS011;9119;50.932;5.342;2022-09-03T21:25:41;12.87;;;7.63;;
17987;SDS011;9119;50.932;5.342;2022-09-03T21:28:20;53.40;;;28.33;;
17987;SDS011;9119;50.932;5.342;2022-09-03T21:30:55;12.93;;;7.97;;
17987;SDS011;9119;50.932;5.342;2022-09-03T21:33:28;48.37;;;26.47;;
17987;SDS011;9119;50.932;5.342;2022-09-03T21:38:36;7.13;;;4.17;;
17987;SDS011;9119;50.932;5.342;2022-09-03T21:41:22;45.47;;;26.07;;
17987;SDS011;9119;50.932;5.342;2022-09-03T21:44:00;55.30;;;34.77;;
17987;SDS011;9119;50.932;5.342;2022-09-03T21:46:55;60.60;;;37.10;;
17987;SDS011;9119;50.932;5.342;2022-09-03T21:49:26;48.23;;;28.73;;
17987;SDS011;9119;50.932;5.342;2022-09-03T21:52:13;101.00;;;55.70;;